Time;durP1;ratioP1;P1;durP2;ratioP2;P2;SDS_P1;SDS_P2;PMS_P1;PMS_P2;Temp;Humidity;BMP_temperature;BMP_pressure;BME280_temperature;BME280_humidity;BME280_pressure;Samples;Min_cycle;Max_cycle;Signal;HPM_P1;HPM_P2
2023/05/31 00:01:03;;;;;;;5.13;3.35;;;;;;;19.52;89.77;99713.19;5131122;27;20461;-84
2023/05/31 00:03:28;;;;;;;3.15;2.50;;;;;;;19.63;89.38;99733.13;5132735;27;20106;-83
2023/05/31 00:05:53;;;;;;;3.50;2.67;;;;;;;19.39;89.72;99691.59;5132131;27;20404;-84
2023/05/31 00:08:19;;;;;;;4.45;2.67;;;;;;;19.40;89.70;99702.19;5132719;27;20222;-83
2023/05/31 00:10:44;;;;;;;5.00;2.33;;;;;;;19.39;90.17;99719.19;5132508;27;20047;-83
2023/05/31 00:13:10;;;;;;;3.38;2.40;;;;;;;19.48;90.35;99734.75;5131958;27;20043;-83
2023/05/31 00:15:35;;;;;;;4.53;2.22;;;;;;;19.43;89.35;99723.44;5132377;27;20023;-83
2023/05/31 00:18:01;;;;;;;3.45;2.30;;;;;;;19.44;89.36;99719.81;5130516;27;20035;-85
2023/05/31 00:20:26;;;;;;;6.20;3.50;;;;;;;19.49;88.97;99736.50;5131678;27;20481;-84
2023/05/31 00:22:52;;;;;;;5.32;3.00;;;;;;;19.20;89.23;99703.22;5132457;27;20034;-83
2023/05/31 00:25:17;;;;;;;4.70;3.08;;;;;;;19.30;90.09;99727.66;5131556;27;20027;-83
2023/05/31 00:27:43;;;;;;;11.65;4.03;;;;;;;19.20;90.34;99723.72;5131776;27;20461;-83
2023/05/31 00:30:09;;;;;;;4.43;2.95;;;;;;;19.06;91.01;99705.69;5131860;27;20515;-84
2023/05/31 00:32:34;;;;;;;6.40;4.07;;;;;;;19.08;92.58;99766.19;5132124;27;20046;-83
2023/05/31 00:35:00;;;;;;;5.53;3.38;;;;;;;18.77;94.21;99737.38;5130389;27;20054;-84
2023/05/31 00:37:26;;;;;;;5.30;3.22;;;;;;;18.89;94.35;99747.50;5131634;27;20023;-83
2023/05/31 00:39:51;;;;;;;6.03;4.00;;;;;;;18.63;94.99;99730.03;5131508;27;20023;-83
2023/05/31 00:42:17;;;;;;;3.97;2.95;;;;;;;18.70;94.96;99733.25;5132074;27;20109;-83
2023/05/31 00:44:42;;;;;;;4.32;2.65;;;;;;;18.34;96.72;99736.75;5131618;27;20099;-82
2023/05/31 00:47:08;;;;;;;4.97;2.78;;;;;;;18.60;96.07;99756.88;5131055;27;20065;-82
2023/05/31 00:49:34;;;;;;;4.47;2.63;;;;;;;18.35;95.84;99712.63;5131751;27;20080;-82
2023/05/31 00:52:00;;;;;;;6.15;3.50;;;;;;;18.36;96.12;99719.69;5131839;27;20488;-82
2023/05/31 00:54:25;;;;;;;10.93;3.70;;;;;;;18.33;95.77;99729.66;5131457;27;20045;-82
2023/05/31 00:56:52;;;;;;;3.22;2.53;;;;;;;18.63;95.23;99759.41;5131156;27;20027;-82
2023/05/31 00:59:17;;;;;;;6.07;3.58;;;;;;;18.67;94.92;99752.09;5131274;27;20031;-82
2023/05/31 01:01:43;;;;;;;6.18;3.42;;;;;;;18.58;93.60;99734.69;5131034;27;20545;-83
2023/05/31 01:04:10;;;;;;;6.00;3.53;;;;;;;18.48;95.15;99760.13;5131477;27;20484;-82
2023/05/31 01:06:35;;;;;;;6.72;3.97;;;;;;;18.33;96.05;99751.00;5130994;27;20027;-83
2023/05/31 01:09:04;;;;;;;5.35;3.00;;;;;;;18.47;95.11;99747.69;5131098;27;20041;-83
2023/05/31 01:12:14;;;;;;;5.82;3.55;;;;;;;18.60;95.06;99776.44;5131826;27;20038;-82
2023/05/31 01:14:50;;;;;;;4.93;3.13;;;;;;;18.02;96.12;99705.22;5128035;27;20050;-82
2023/05/31 01:17:30;;;;;;;4.60;2.80;;;;;;;18.21;96.65;99757.78;5129790;27;20027;-82
2023/05/31 01:19:59;;;;;;;5.25;2.70;;;;;;;18.23;97.14;99756.78;5130245;27;20019;-84
2023/05/31 01:22:50;;;;;;;5.03;3.92;;;;;;;18.07;95.95;99713.91;5131423;27;20042;-84
2023/05/31 01:25:51;;;;;;;4.10;3.13;;;;;;;18.23;97.27;99766.59;5131243;27;20034;-82
2023/05/31 01:28:16;;;;;;;2.08;1.67;;;;;;;17.99;98.61;99747.22;5131217;27;20099;-82
2023/05/31 01:30:45;;;;;;;2.70;2.38;;;;;;;18.08;97.78;99733.44;5130713;27;20484;-82
2023/05/31 01:33:12;;;;;;;3.47;2.58;;;;;;;18.20;97.18;99745.38;5131063;27;20118;-83
2023/05/31 01:35:37;;;;;;;5.22;2.55;;;;;;;18.12;97.32;99747.50;5130815;27;20054;-82
2023/05/31 01:38:03;;;;;;;3.08;1.90;;;;;;;18.28;96.64;99769.91;5129736;27;20552;-82
2023/05/31 01:40:30;;;;;;;4.03;2.25;;;;;;;17.91;96.88;99720.88;5131235;27;20027;-82
2023/05/31 01:42:56;;;;;;;4.20;2.42;;;;;;;18.01;98.69;99772.91;5130882;27;20019;-85
2023/05/31 01:45:23;;;;;;;3.28;2.85;;;;;;;17.94;98.75;99757.22;5130950;27;20039;-83
2023/05/31 01:47:53;;;;;;;3.72;2.58;;;;;;;17.92;97.18;99743.06;5130988;27;20088;-82
2023/05/31 01:50:20;;;;;;;2.60;2.03;;;;;;;17.98;97.73;99748.13;5130928;27;20107;-82
2023/05/31 01:52:45;;;;;;;3.63;2.67;;;;;;;18.11;96.76;99751.13;5130883;27;20507;-82
2023/05/31 01:55:11;;;;;;;5.95;3.40;;;;;;;18.28;95.77;99767.25;5130046;27;20106;-82
2023/05/31 01:57:42;;;;;;;3.10;1.83;;;;;;;18.37;95.12;99749.94;5131142;27;20500;-82
2023/05/31 02:00:12;;;;;;;2.72;1.55;;;;;;;18.26;95.52;99753.09;5130571;27;20056;-82
2023/05/31 02:02:44;;;;;;;3.55;2.05;;;;;;;18.12;95.86;99751.06;5129471;28;20469;-82
2023/05/31 02:05:12;;;;;;;3.85;1.92;;;;;;;18.28;95.71;99763.72;5129671;28;20027;-82
2023/05/31 02:07:43;;;;;;;3.83;2.25;;;;;;;18.34;95.03;99761.63;5130715;27;20130;-82
2023/05/31 02:10:10;;;;;;;4.45;2.67;;;;;;;18.50;94.62;99779.59;5130439;27;20020;-82
2023/05/31 02:12:35;;;;;;;3.22;2.08;;;;;;;18.57;91.40;99757.03;5130598;27;20031;-82
2023/05/31 02:15:01;;;;;;;4.72;3.50;;;;;;;18.51;91.41;99754.66;5134789;27;20096;-82
2023/05/31 02:17:28;;;;;;;4.68;2.35;;;;;;;18.36;92.13;99757.06;5134964;27;20023;-82
2023/05/31 02:19:55;;;;;;;13.60;2.63;;;;;;;18.65;91.55;99789.59;5129303;27;20050;-82
2023/05/31 02:22:21;;;;;;;3.22;2.47;;;;;;;18.55;91.44;99775.78;5134693;27;20035;-82
2023/05/31 02:24:47;;;;;;;8.80;3.03;;;;;;;18.52;91.77;99786.63;5134939;27;20038;-82
2023/05/31 02:27:13;;;;;;;3.38;1.95;;;;;;;18.43;91.70;99779.03;5132670;27;20027;-81
2023/05/31 02:29:39;;;;;;;6.53;3.03;;;;;;;18.40;91.67;99765.81;5134661;27;20035;-81
2023/05/31 02:32:05;;;;;;;2.65;2.40;;;;;;;18.24;92.03;99762.97;5133871;27;20034;-82
2023/05/31 02:34:31;;;;;;;9.02;1.80;;;;;;;18.46;91.97;99792.25;5132969;27;20059;-83
2023/05/31 02:36:57;;;;;;;3.97;2.25;;;;;;;18.47;92.02;99779.75;5133744;27;20118;-82
2023/05/31 02:39:24;;;;;;;9.15;2.75;;;;;;;18.29;91.95;99758.31;5134627;27;20121;-81
2023/05/31 02:41:50;;;;;;;3.55;2.83;;;;;;;18.36;91.76;99769.56;5134885;27;20492;-81
2023/05/31 02:44:15;;;;;;;5.63;3.38;;;;;;;18.27;91.67;99751.28;5134789;27;20146;-82
2023/05/31 02:46:41;;;;;;;3.83;2.80;;;;;;;18.42;91.90;99778.16;5133422;27;20471;-82
2023/05/31 02:49:06;;;;;;;4.22;1.65;;;;;;;18.58;92.06;99796.13;5132718;27;20346;-82
2023/05/31 02:51:32;;;;;;;3.00;2.35;;;;;;;18.59;91.50;99784.53;5134081;27;20084;-82
2023/05/31 02:53:58;;;;;;;4.13;2.92;;;;;;;18.54;91.38;99774.06;5133638;27;20038;-82
2023/05/31 02:56:24;;;;;;;4.88;2.28;;;;;;;18.45;91.39;99760.28;5133923;27;20035;-82
2023/05/31 02:58:50;;;;;;;3.50;2.90;;;;;;;18.36;91.42;99742.88;5133547;27;20046;-82
2023/05/31 03:01:16;;;;;;;6.03;1.98;;;;;;;18.47;91.18;99758.38;5134133;27;20175;-84
2023/05/31 03:03:41;;;;;;;4.60;3.13;;;;;;;18.65;90.77;99768.22;5132265;27;20126;-85
2023/05/31 03:06:07;;;;;;;4.78;2.47;;;;;;;18.46;91.60;99776.22;5133659;27;20035;-84
2023/05/31 03:08:32;;;;;;;4.20;2.63;;;;;;;18.65;91.65;99813.63;5133156;27;20064;-86
2023/05/31 03:10:58;;;;;;;2.90;2.47;;;;;;;18.50;91.44;99769.78;5132553;27;20539;-85
2023/05/31 03:13:23;;;;;;;3.53;1.98;;;;;;;18.56;90.69;99782.84;5134088;27;20043;-83
2023/05/31 03:15:49;;;;;;;2.83;2.50;;;;;;;18.46;91.70;99767.31;5133344;27;20402;-83
2023/05/31 03:18:15;;;;;;;4.15;2.58;;;;;;;18.56;91.11;99774.84;5131871;27;20035;-83
2023/05/31 03:20:40;;;;;;;2.80;2.08;;;;;;;18.58;91.18;99774.78;5130451;27;20031;-82
2023/05/31 03:23:09;;;;;;;3.33;2.00;;;;;;;18.44;92.08;99770.06;5118161;27;20035;-84
2023/05/31 03:25:34;;;;;;;3.35;2.38;;;;;;;18.57;92.01;99768.56;5112158;27;20020;-83
2023/05/31 03:28:00;;;;;;;2.55;2.17;;;;;;;18.72;92.52;99799.06;5133166;27;20038;-82
2023/05/31 03:30:25;;;;;;;2.78;2.13;;;;;;;18.72;92.58;99780.34;5132126;27;20431;-82
2023/05/31 03:32:51;;;;;;;2.78;2.00;;;;;;;18.96;92.07;99789.00;5130688;27;20492;-82
2023/05/31 03:35:17;;;;;;;4.80;2.72;;;;;;;19.01;91.82;99804.81;5124639;27;20039;-82
2023/05/31 03:37:43;;;;;;;4.78;2.72;;;;;;;18.86;92.07;99750.31;5111909;28;20508;-82
2023/05/31 03:40:09;;;;;;;9.18;2.92;;;;;;;19.01;91.27;99763.88;5111596;28;20109;-83
2023/05/31 03:42:35;;;;;;;3.80;2.50;;;;;;;19.04;91.91;99774.41;5114265;27;20548;-85
2023/05/31 03:45:01;;;;;;;5.72;2.70;;;;;;;19.25;91.92;99793.91;5112138;28;20519;-87
2023/05/31 03:47:27;;;;;;;4.75;2.10;;;;;;;19.21;91.43;99795.84;5126512;27;20507;-83
2023/05/31 03:49:52;;;;;;;3.63;2.83;;;;;;;19.41;91.21;99815.41;5132465;27;20118;-83
2023/05/31 03:52:18;;;;;;;4.57;2.90;;;;;;;19.29;91.00;99780.31;5132507;27;20041;-84
2023/05/31 03:54:44;;;;;;;3.80;2.55;;;;;;;19.52;90.02;99798.81;5132257;27;20109;-83
2023/05/31 03:57:09;;;;;;;3.78;2.22;;;;;;;19.62;89.06;99795.59;5132769;27;20079;-84
2023/05/31 03:59:35;;;;;;;3.30;2.20;;;;;;;19.28;87.27;99797.28;5132502;27;20031;-85
2023/05/31 04:02:01;;;;;;;4.32;2.65;;;;;;;19.47;89.16;99815.94;5131435;27;20023;-85
2023/05/31 04:04:26;;;;;;;3.20;2.53;;;;;;;19.37;87.89;99781.72;5128187;27;20027;-83
2023/05/31 04:06:53;;;;;;;2.88;2.03;;;;;;;19.07;88.90;99815.22;5118642;27;20493;-84
2023/05/31 04:09:18;;;;;;;4.47;2.63;;;;;;;18.88;88.52;99774.31;5130442;27;20031;-83
2023/05/31 04:11:45;;;;;;;5.00;2.53;;;;;;;19.14;87.84;99797.09;5130899;27;20085;-84
2023/05/31 04:14:10;;;;;;;2.38;1.58;;;;;;;19.53;87.72;99809.44;5128769;27;20043;-83
2023/05/31 04:16:36;;;;;;;7.00;3.40;;;;;;;19.41;86.93;99808.22;5132267;27;20035;-84
2023/05/31 04:19:02;;;;;;;3.17;1.95;;;;;;;19.74;86.49;99822.66;5131814;27;20474;-83
2023/05/31 04:21:27;;;;;;;4.32;2.47;;;;;;;19.92;86.71;99820.88;5131345;27;20076;-81
2023/05/31 04:23:53;;;;;;;4.00;1.85;;;;;;;19.87;85.19;99791.69;5131735;27;20031;-84
2023/05/31 04:26:18;;;;;;;1.95;1.35;;;;;;;19.84;83.90;99795.38;5131122;27;20099;-83
2023/05/31 04:28:44;;;;;;;3.65;2.85;;;;;;;20.01;85.63;99825.78;5131980;27;20352;-82
2023/05/31 04:31:11;;;;;;;2.28;1.63;;;;;;;20.26;84.39;99811.09;5132030;27;20038;-84
2023/05/31 04:33:38;;;;;;;6.05;3.33;;;;;;;20.16;83.46;99800.88;5131650;27;20027;-82
2023/05/31 04:36:04;;;;;;;4.97;3.40;;;;;;;20.32;83.87;99814.28;5131202;27;20118;-81
2023/05/31 04:38:32;;;;;;;4.60;2.45;;;;;;;20.24;84.92;99799.59;5132090;27;20023;-82
2023/05/31 04:41:00;;;;;;;4.13;2.30;;;;;;;20.24;85.60;99813.00;5131982;27;20079;-82
2023/05/31 04:43:25;;;;;;;3.42;2.25;;;;;;;20.31;84.54;99823.28;5130736;27;20416;-82
2023/05/31 04:45:52;;;;;;;3.42;2.60;;;;;;;20.30;84.58;99802.81;5129848;27;20031;-81
2023/05/31 04:48:19;;;;;;;5.47;3.03;;;;;;;20.39;84.79;99812.16;5123467;27;20573;-82
2023/05/31 04:50:46;;;;;;;4.57;2.38;;;;;;;20.65;83.06;99836.69;5126029;27;20031;-83
2023/05/31 04:53:12;;;;;;;4.20;2.97;;;;;;;20.69;81.41;99815.00;5121335;27;20023;-84
2023/05/31 04:55:38;;;;;;;3.05;2.05;;;;;;;20.33;82.11;99767.81;5123197;27;20506;-86
2023/05/31 04:58:03;;;;;;;3.83;2.75;;;;;;;20.67;82.73;99832.16;5131311;27;20054;-83
2023/05/31 05:00:29;;;;;;;4.35;2.35;;;;;;;20.63;81.57;99818.00;5131345;27;20091;-84
2023/05/31 05:02:56;;;;;;;4.80;2.30;;;;;;;20.83;80.33;99846.41;5131047;27;20479;-85
2023/05/31 05:05:23;;;;;;;4.30;2.70;;;;;;;20.63;81.69;99839.44;5131629;27;20031;-86
2023/05/31 05:07:49;;;;;;;5.53;3.00;;;;;;;20.82;80.44;99817.00;5131275;27;20084;-84
2023/05/31 05:10:15;;;;;;;8.18;3.85;;;;;;;21.05;79.37;99848.78;5117188;27;20040;-85
2023/05/31 05:12:40;;;;;;;5.00;2.67;;;;;;;21.10;78.08;99854.75;5118961;27;20058;-84
2023/05/31 05:15:06;;;;;;;4.00;2.90;;;;;;;20.92;80.97;99856.63;5117049;27;20026;-85
2023/05/31 05:17:32;;;;;;;6.03;3.97;;;;;;;21.30;79.12;99860.78;5112975;27;20054;-84
2023/05/31 05:19:57;;;;;;;4.10;2.47;;;;;;;20.73;80.75;99829.13;5118711;27;20039;-86
2023/05/31 05:38:01;;;;;;;3.05;2.13;;;;;;;22.00;77.26;99865.72;5129537;27;20429;-83
2023/05/31 05:40:27;;;;;;;3.80;2.47;;;;;;;22.15;78.42;99891.66;5110767;27;20035;-82
2023/05/31 05:42:54;;;;;;;6.43;2.97;;;;;;;22.16;76.82;99871.03;5108249;28;20104;-82
2023/05/31 05:45:19;;;;;;;6.28;3.40;;;;;;;22.22;77.80;99873.34;5112428;28;20032;-81
2023/05/31 05:47:45;;;;;;;5.55;3.08;;;;;;;21.79;72.45;99870.53;5102139;28;20475;-81
2023/05/31 05:50:12;;;;;;;4.07;2.65;;;;;;;21.92;74.16;99884.97;5095099;28;20425;-82
2023/05/31 05:52:38;;;;;;;4.72;3.05;;;;;;;22.07;74.21;99861.69;5115609;28;20039;-82
2023/05/31 05:55:04;;;;;;;4.13;2.47;;;;;;;22.06;72.70;99881.47;5110890;28;20032;-82
2023/05/31 05:57:30;;;;;;;7.15;4.05;;;;;;;22.04;76.22;99890.56;5105760;28;20058;-81
2023/05/31 05:59:56;;;;;;;6.28;3.78;;;;;;;22.43;75.97;99905.28;5119753;28;20023;-82
2023/05/31 06:02:22;;;;;;;7.13;4.43;;;;;;;22.79;71.78;99885.16;5109474;27;20138;-82
2023/05/31 06:04:49;;;;;;;5.50;3.63;;;;;;;22.89;70.55;99915.88;5115333;28;20509;-83
2023/05/31 06:07:18;;;;;;;9.98;3.88;;;;;;;23.22;71.54;99918.28;5106121;28;20040;-84
2023/05/31 06:09:43;;;;;;;5.05;2.78;;;;;;;22.85;70.52;99868.63;5113718;28;20038;-83
2023/05/31 06:12:09;;;;;;;4.35;2.45;;;;;;;22.92;72.54;99890.63;5127446;28;20031;-83
2023/05/31 06:14:35;;;;;;;4.47;2.35;;;;;;;22.77;71.51;99897.81;5111777;28;20031;-84
2023/05/31 06:17:00;;;;;;;4.20;2.40;;;;;;;22.75;73.21;99894.38;5113578;27;20069;-83
2023/05/31 06:19:26;;;;;;;5.32;3.60;;;;;;;23.20;71.91;99908.56;5115132;28;20016;-83
2023/05/31 06:21:53;;;;;;;4.53;2.65;;;;;;;23.15;73.19;99898.09;5109099;28;20423;-85
2023/05/31 06:24:19;;;;;;;10.35;4.53;;;;;;;23.40;72.47;99916.25;5108142;28;20034;-83
2023/05/31 06:26:44;;;;;;;8.50;5.28;;;;;;;22.30;74.47;99894.38;5104247;28;20023;-84
2023/05/31 06:29:10;;;;;;;5.13;2.55;;;;;;;22.29;75.56;99869.34;5111405;28;20036;-84
2023/05/31 06:31:35;;;;;;;5.45;2.85;;;;;;;22.72;74.71;99900.78;5113616;28;20024;-86
2023/05/31 06:34:02;;;;;;;4.95;3.17;;;;;;;22.76;76.21;99905.03;5110809;27;20519;-82
2023/05/31 06:36:29;;;;;;;7.88;3.58;;;;;;;22.84;70.85;99893.78;5106256;28;20564;-84
2023/05/31 06:38:54;;;;;;;6.63;3.50;;;;;;;22.84;75.53;99909.91;5094966;28;20041;-87
2023/05/31 06:41:20;;;;;;;6.78;3.67;;;;;;;23.09;73.00;99897.63;5095644;28;20092;-84
2023/05/31 06:43:45;;;;;;;3.17;2.33;;;;;;;23.42;72.15;99894.59;5097045;28;20031;-84
2023/05/31 06:46:12;;;;;;;5.90;3.63;;;;;;;23.62;70.33;99906.75;5095635;28;20046;-85
2023/05/31 06:48:37;;;;;;;5.47;3.53;;;;;;;23.81;70.24;99892.06;5100881;28;20031;-87
2023/05/31 06:51:03;;;;;;;2.92;2.13;;;;;;;23.15;71.59;99889.19;5094267;28;20039;-85
2023/05/31 06:53:28;;;;;;;7.40;3.42;;;;;;;23.59;69.69;99904.28;5095139;28;20031;-85
2023/05/31 06:55:54;;;;;;;9.50;3.92;;;;;;;23.17;68.49;99860.34;5090395;28;20075;-87
2023/05/31 06:58:19;;;;;;;10.90;3.55;;;;;;;23.86;68.36;99906.97;5097504;28;20449;-84
2023/05/31 07:00:45;;;;;;;5.32;2.95;;;;;;;23.73;71.22;99882.66;5085055;28;20054;-85
2023/05/31 07:03:10;;;;;;;6.78;4.18;;;;;;;23.89;68.51;99904.06;5092400;28;20020;-85
2023/05/31 07:05:36;;;;;;;6.57;3.63;;;;;;;23.57;69.81;99852.34;5091297;28;20412;-86
2023/05/31 07:08:01;;;;;;;7.00;2.58;;;;;;;23.92;68.90;99893.09;5098173;28;20444;-86
2023/05/31 07:10:27;;;;;;;4.68;2.97;;;;;;;23.84;65.75;99900.84;5098362;28;20530;-86
2023/05/31 07:12:53;;;;;;;3.55;2.38;;;;;;;24.03;65.11;99900.44;5083024;27;20036;-88
2023/05/31 07:15:19;;;;;;;6.07;3.03;;;;;;;23.85;65.56;99869.38;5090143;28;20063;-87
2023/05/31 07:17:45;;;;;;;6.03;2.67;;;;;;;24.17;64.25;99891.41;5096655;28;20062;-84
2023/05/31 07:20:11;;;;;;;3.50;1.98;;;;;;;24.42;63.78;99893.31;5094848;28;20028;-85
2023/05/31 07:22:37;;;;;;;4.35;2.88;;;;;;;24.24;65.73;99867.63;5094835;28;20405;-85
2023/05/31 07:25:03;;;;;;;7.85;3.35;;;;;;;24.26;64.55;99904.25;5093826;28;20028;-88
2023/05/31 07:27:30;;;;;;;5.85;3.03;;;;;;;24.27;65.58;99873.66;5096222;28;20028;-82
2023/05/31 07:29:55;;;;;;;3.88;1.98;;;;;;;24.35;66.28;99907.31;5099248;27;20122;-84
2023/05/31 07:32:21;;;;;;;5.85;3.22;;;;;;;24.38;63.55;99907.09;5094121;28;20122;-84
2023/05/31 07:34:47;;;;;;;4.38;2.67;;;;;;;24.16;63.90;99876.25;5102504;28;20036;-85
2023/05/31 07:37:13;;;;;;;6.78;2.22;;;;;;;24.42;62.16;99878.94;5090413;28;20406;-85
2023/05/31 07:39:38;;;;;;;4.35;2.55;;;;;;;24.47;61.48;99898.38;5092872;28;20505;-85
2023/05/31 07:42:04;;;;;;;3.22;2.05;;;;;;;24.70;61.21;99893.22;5087707;28;20038;-85
2023/05/31 07:44:30;;;;;;;4.95;2.72;;;;;;;24.54;62.18;99899.66;5091800;28;20032;-85
2023/05/31 07:46:56;;;;;;;4.35;1.92;;;;;;;25.07;61.51;99875.28;5092538;28;20035;-85
2023/05/31 07:49:21;;;;;;;5.90;3.10;;;;;;;25.43;61.26;99873.56;5092030;28;20107;-86
2023/05/31 07:51:47;;;;;;;4.22;2.40;;;;;;;25.71;60.09;99896.66;5090278;28;20420;-88
2023/05/31 07:54:13;;;;;;;2.85;2.25;;;;;;;26.23;59.64;99882.91;5092707;28;20070;-85
2023/05/31 07:56:39;;;;;;;4.53;2.08;;;;;;;26.91;56.59;99881.16;5092460;28;20067;-85
2023/05/31 07:59:06;;;;;;;6.82;2.47;;;;;;;26.88;54.19;99869.69;5097618;28;20083;-86
2023/05/31 08:01:32;;;;;;;5.30;2.45;;;;;;;26.84;56.37;99868.25;5100438;28;20040;-84
2023/05/31 08:04:08;;;;;;;4.10;2.67;;;;;;;27.40;51.84;99889.00;5097704;28;20023;-85
2023/05/31 08:06:34;;;;;;;4.03;2.28;;;;;;;27.41;48.02;99871.78;5091329;28;20474;-86
2023/05/31 08:09:05;;;;;;;3.92;1.50;;;;;;;26.80;52.20;99873.91;5093563;28;20035;-85
2023/05/31 08:11:31;;;;;;;3.45;1.90;;;;;;;27.05;52.99;99887.28;5092772;28;20024;-84
2023/05/31 08:13:56;;;;;;;4.55;2.10;;;;;;;26.51;58.47;99853.66;5099481;28;20104;-84
2023/05/31 08:16:21;;;;;;;3.05;1.85;;;;;;;27.30;50.04;99883.47;5094001;28;20023;-84
2023/05/31 08:18:47;;;;;;;2.50;1.67;;;;;;;27.36;51.68;99841.47;5096918;28;20028;-84
2023/05/31 08:21:12;;;;;;;3.42;2.15;;;;;;;28.06;45.39;99856.38;5096155;28;20031;-85
2023/05/31 08:23:38;;;;;;;3.08;1.80;;;;;;;27.78;49.85;99849.72;5091409;28;20024;-85
2023/05/31 08:26:03;;;;;;;2.22;1.73;;;;;;;28.50;50.75;99889.66;5090225;28;20376;-86
2023/05/31 08:28:31;;;;;;;4.60;2.13;;;;;;;28.69;45.43;99837.38;5097897;28;20437;-90
2023/05/31 08:30:57;;;;;;;3.67;2.30;;;;;;;28.46;49.10;99865.66;5080934;28;20058;-87
2023/05/31 08:33:29;;;;;;;2.58;1.60;;;;;;;28.44;46.79;99851.34;5090469;28;20103;-85
2023/05/31 08:35:59;;;;;;;4.43;2.38;;;;;;;28.19;50.69;99869.75;5086351;28;20379;-88
2023/05/31 08:38:28;;;;;;;3.63;2.15;;;;;;;27.10;51.08;99861.56;5100736;28;20120;-86
2023/05/31 08:41:00;;;;;;;4.00;2.10;;;;;;;28.10;52.08;99838.00;5096712;28;20046;-85
2023/05/31 08:43:26;;;;;;;3.97;1.73;;;;;;;28.18;55.88;99828.22;5089599;28;20035;-83
2023/05/31 08:45:52;;;;;;;3.45;1.88;;;;;;;29.22;49.53;99836.28;5091437;28;20069;-83
2023/05/31 08:48:28;;;;;;;4.93;1.40;;;;;;;29.55;48.47;99847.78;5092817;28;20032;-81
2023/05/31 08:50:54;;;;;;;4.07;2.00;;;;;;;28.83;51.52;99857.84;5094102;28;20039;-83
2023/05/31 08:53:23;;;;;;;5.40;2.55;;;;;;;28.99;46.61;99813.03;5095872;28;20040;-83
2023/05/31 08:55:50;;;;;;;9.70;3.08;;;;;;;29.24;45.21;99834.28;5084899;28;21231;-84
2023/05/31 08:58:17;;;;;;;3.33;2.17;;;;;;;28.66;43.50;99823.22;5090419;28;20531;-82
2023/05/31 09:00:43;;;;;;;3.65;2.30;;;;;;;28.78;45.88;99823.97;5090948;28;20093;-83
2023/05/31 09:03:10;;;;;;;2.83;2.28;;;;;;;28.67;45.76;99830.34;5094386;28;20116;-86
2023/05/31 09:05:35;;;;;;;4.20;2.25;;;;;;;29.04;44.25;99827.94;5087114;28;20175;-86
2023/05/31 09:08:01;;;;;;;5.30;3.08;;;;;;;28.96;45.90;99816.88;5090931;28;20452;-85
2023/05/31 09:10:28;;;;;;;3.95;2.92;;;;;;;29.11;45.40;99815.50;5094664;28;20492;-82
2023/05/31 09:12:54;;;;;;;3.10;2.45;;;;;;;28.91;44.85;99792.03;5090687;28;20032;-82
2023/05/31 09:15:23;;;;;;;6.95;2.55;;;;;;;29.41;46.56;99821.88;5091764;28;20035;-81
2023/05/31 09:17:48;;;;;;;3.58;2.60;;;;;;;29.60;43.73;99803.88;5094687;28;20035;-81
2023/05/31 09:20:14;;;;;;;4.00;2.50;;;;;;;30.40;42.45;99829.00;5093402;28;20044;-80
2023/05/31 09:22:39;;;;;;;4.63;2.78;;;;;;;30.33;42.77;99816.97;5094864;28;20031;-81
2023/05/31 09:25:06;;;;;;;4.22;2.35;;;;;;;29.95;41.48;99802.44;5092691;28;20061;-82
2023/05/31 09:27:36;;;;;;;4.13;2.28;;;;;;;29.68;43.01;99803.16;5094688;28;20024;-79
2023/05/31 09:30:08;;;;;;;5.65;3.50;;;;;;;29.47;44.19;99798.69;5093956;28;20040;-81
2023/05/31 09:32:35;;;;;;;4.82;2.78;;;;;;;29.73;42.17;99804.44;5106121;28;20231;-83
2023/05/31 09:35:13;;;;;;;4.28;2.55;;;;;;;29.57;45.69;99783.28;5092374;28;20036;-82
2023/05/31 09:37:45;;;;;;;6.32;3.72;;;;;;;29.70;44.50;99790.28;5083679;28;20503;-83
2023/05/31 09:40:21;;;;;;;4.18;2.50;;;;;;;29.78;44.35;99785.84;5094078;28;20044;-82
2023/05/31 09:42:51;;;;;;;3.33;1.88;;;;;;;30.33;41.24;99800.63;5099321;28;20108;-83
2023/05/31 09:45:18;;;;;;;4.50;3.17;;;;;;;29.68;42.96;99770.53;5091857;28;20036;-83
2023/05/31 09:47:44;;;;;;;2.97;2.38;;;;;;;29.02;46.15;99791.03;5091493;28;20132;-84
2023/05/31 09:50:20;;;;;;;4.65;2.42;;;;;;;29.53;42.91;99780.97;5086838;28;20036;-83
2023/05/31 09:52:48;;;;;;;6.90;2.17;;;;;;;29.94;43.58;99782.56;5085577;28;20135;-83
2023/05/31 09:55:16;;;;;;;3.67;2.75;;;;;;;29.68;44.93;99779.53;5092278;28;20106;-82
2023/05/31 09:57:43;;;;;;;3.05;2.13;;;;;;;29.96;42.66;99771.53;5095483;28;20032;-86
2023/05/31 10:00:20;;;;;;;4.75;3.30;;;;;;;30.33;45.96;99754.38;5093993;28;20481;-83
2023/05/31 10:02:51;;;;;;;3.22;2.03;;;;;;;30.33;41.73;99757.97;5093263;28;20070;-82
2023/05/31 10:05:18;;;;;;;5.10;2.92;;;;;;;29.50;39.88;99776.69;5086184;28;20044;-81
2023/05/31 10:07:47;;;;;;;3.13;1.70;;;;;;;29.28;42.08;99767.81;5082747;28;20027;-83
2023/05/31 10:10:13;;;;;;;3.05;1.70;;;;;;;29.25;42.75;99778.09;5082615;28;20407;-83
2023/05/31 10:12:50;;;;;;;2.97;2.03;;;;;;;29.65;41.33;99768.97;5085957;28;20653;-84
2023/05/31 10:15:22;;;;;;;3.08;2.05;;;;;;;29.88;40.31;99772.25;5101541;28;20100;-81
2023/05/31 10:17:57;;;;;;;8.82;2.25;;;;;;;29.55;39.17;99733.66;5096515;28;20035;-81
2023/05/31 10:20:27;;;;;;;5.18;1.92;;;;;;;29.78;40.07;99730.59;5096136;28;20507;-81
2023/05/31 10:22:57;;;;;;;3.53;1.58;;;;;;;30.17;38.76;99757.75;5078497;28;20493;-81
2023/05/31 10:25:34;;;;;;;3.65;2.13;;;;;;;29.96;39.33;99718.00;5092150;28;20081;-82
2023/05/31 10:28:03;;;;;;;6.43;2.72;;;;;;;30.61;39.46;99752.56;5091743;28;20036;-82
2023/05/31 10:30:33;;;;;;;2.55;1.73;;;;;;;30.67;38.57;99735.63;5092188;28;20115;-82
2023/05/31 10:33:12;;;;;;;3.15;2.38;;;;;;;30.35;39.53;99730.59;5090330;28;20054;-81
2023/05/31 10:35:38;;;;;;;2.35;1.77;;;;;;;29.41;40.20;99721.38;5092417;28;20020;-81
2023/05/31 10:38:05;;;;;;;3.22;2.20;;;;;;;29.91;37.74;99758.38;5090844;28;20063;-81
2023/05/31 10:40:42;;;;;;;4.15;1.95;;;;;;;30.21;40.19;99755.56;5106936;28;20126;-81
2023/05/31 10:43:33;;;;;;;1.67;1.08;;;;;;;29.79;40.20;99733.16;5092386;28;20028;-82
2023/05/31 10:46:06;;;;;;;5.40;1.92;;;;;;;29.10;37.83;99732.34;5092129;28;20085;-81
2023/05/31 10:48:51;;;;;;;5.63;1.77;;;;;;;29.19;40.97;99725.16;5092212;28;20032;-81
2023/05/31 10:51:16;;;;;;;;;;;;;;;29.41;38.80;99726.81;5090552;28;20020;-83
2023/05/31 10:53:45;;;;;;;3.83;2.30;;;;;;;29.38;41.83;99720.78;5090794;28;20449;-83
2023/05/31 10:56:13;;;;;;;4.53;2.20;;;;;;;29.24;39.19;99725.66;5091344;28;20032;-83
2023/05/31 10:58:47;;;;;;;4.10;1.90;;;;;;;29.19;39.23;99702.59;5091214;28;20024;-86
2023/05/31 11:01:21;;;;;;;3.10;2.05;;;;;;;28.26;42.48;99694.66;5086233;28;20042;-83
2023/05/31 11:03:53;;;;;;;4.32;2.15;;;;;;;28.64;41.64;99720.25;5091097;28;20058;-83
2023/05/31 11:06:32;;;;;;;2.78;2.05;;;;;;;28.73;39.42;99697.72;5091604;28;20020;-83
2023/05/31 11:09:12;;;;;;;3.63;1.38;;;;;;;28.85;42.10;99673.16;5091495;28;20020;-82
2023/05/31 11:11:41;;;;;;;1.92;1.40;;;;;;;29.22;42.25;99705.06;5082330;28;20032;-84
2023/05/31 11:14:27;;;;;;;3.78;1.77;;;;;;;29.96;38.30;99669.06;5094219;28;20469;-83
2023/05/31 11:17:03;;;;;;;1.50;1.38;;;;;;;30.57;37.91;99699.47;5111196;28;20035;-83
2023/05/31 11:19:34;;;;;;;4.53;2.72;;;;;;;30.34;38.07;99688.94;5111554;28;20491;-83
2023/05/31 11:22:07;;;;;;;2.80;1.60;;;;;;;30.25;36.09;99706.16;5111581;28;20063;-83
2023/05/31 11:24:51;;;;;;;1.73;1.52;;;;;;;29.95;36.06;99689.13;5111523;27;20946;-83
2023/05/31 11:27:18;;;;;;;3.95;1.95;;;;;;;29.62;38.99;99688.56;5111857;27;20030;-83
2023/05/31 11:29:44;;;;;;;1.67;1.10;;;;;;;29.26;38.53;99692.91;5110895;27;20101;-84
2023/05/31 11:32:10;;;;;;;3.58;2.20;;;;;;;29.06;38.77;99668.44;5110206;28;20035;-85
2023/05/31 11:34:56;;;;;;;3.13;1.77;;;;;;;29.95;36.94;99669.19;5111317;28;20027;-84
2023/05/31 11:37:36;;;;;;;4.20;1.80;;;;;;;29.99;36.09;99660.59;5111449;28;20044;-85
2023/05/31 11:40:06;;;;;;;8.38;1.58;;;;;;;30.18;33.86;99651.53;5109612;28;20409;-84
2023/05/31 11:42:36;;;;;;;4.47;2.33;;;;;;;29.55;35.75;99656.69;5110805;28;20039;-84
2023/05/31 11:45:12;;;;;;;2.80;1.67;;;;;;;29.06;37.73;99654.88;5111125;28;20023;-84
2023/05/31 11:48:06;;;;;;;2.88;1.55;;;;;;;29.13;36.51;99668.72;5111109;28;20024;-84
2023/05/31 11:50:31;;;;;;;4.78;2.30;;;;;;;29.33;33.90;99660.59;5100773;28;20039;-85
2023/05/31 11:53:02;;;;;;;2.50;1.52;;;;;;;29.78;33.35;99655.38;5098656;28;20390;-84